createdAt,value
2018-12-24T00:00:55.108Z,5.30
2018-12-24T00:01:55.097Z,5.32
2018-12-24T00:02:55.095Z,5.31
2018-12-24T00:03:55.101Z,5.31
2018-12-24T00:04:55.065Z,5.31
2018-12-24T00:05:55.054Z,5.30
2018-12-24T00:06:55.041Z,5.20
2018-12-24T00:07:55.031Z,5.27
2018-12-24T00:08:55.032Z,5.23
2018-12-24T00:09:55.042Z,5.28
2018-12-24T00:10:54.997Z,5.28
2018-12-24T00:11:54.987Z,5.28
2018-12-24T00:12:54.978Z,5.32
2018-12-24T00:13:54.965Z,5.32
2018-12-24T00:14:54.965Z,5.27
2018-12-24T00:15:54.960Z,5.35
2018-12-24T00:16:54.930Z,5.22
2018-12-24T00:17:54.920Z,5.32
2018-12-24T00:18:54.912Z,5.30
2018-12-24T00:19:54.897Z,5.31
2018-12-24T00:20:54.920Z,5.30
2018-12-24T00:21:54.879Z,5.28
2018-12-24T00:22:54.863Z,5.23
2018-12-24T00:23:54.854Z,5.32
2018-12-24T00:24:54.842Z,5.30
2018-12-24T00:25:54.830Z,5.27
2018-12-24T00:26:54.846Z,5.31
2018-12-24T00:27:54.809Z,5.19
2018-12-24T00:28:54.796Z,5.22
2018-12-24T00:29:54.785Z,5.17
2018-12-24T00:30:54.789Z,5.27
2018-12-24T00:31:54.798Z,5.20
2018-12-24T00:32:54.763Z,5.20
2018-12-24T00:33:54.740Z,5.20
2018-12-24T00:34:54.730Z,5.23
2018-12-24T00:35:54.719Z,5.17
2018-12-24T00:36:54.707Z,5.25
2018-12-24T00:37:54.723Z,5.25
2018-12-24T00:38:54.693Z,5.25
2018-12-24T00:39:54.678Z,5.31
2018-12-24T00:40:54.664Z,5.22
2018-12-24T00:41:54.656Z,5.30
2018-12-24T00:42:54.641Z,5.23
2018-12-24T00:43:54.646Z,5.23
2018-12-24T00:44:54.620Z,5.19
2018-12-24T00:45:54.622Z,5.22
2018-12-24T00:46:54.601Z,5.20
2018-12-24T00:47:54.583Z,5.23
2018-12-24T00:48:54.596Z,5.25
2018-12-24T00:49:54.564Z,5.23
2018-12-24T00:50:54.550Z,5.22
2018-12-24T00:51:54.546Z,5.22
2018-12-24T00:52:54.532Z,5.23
2018-12-24T00:53:54.535Z,5.20
2018-12-24T00:54:54.506Z,5.22
2018-12-24T00:55:54.495Z,5.30
2018-12-24T00:56:54.484Z,5.22
2018-12-24T00:57:54.485Z,5.30
2018-12-24T00:58:54.496Z,5.28
2018-12-24T00:59:54.452Z,5.23
2018-12-24T01:00:54.442Z,5.19
2018-12-24T01:01:54.429Z,5.23
2018-12-24T01:02:54.425Z,5.20
2018-12-24T01:03:54.412Z,5.23
2018-12-24T01:04:54.430Z,5.19
2018-12-24T01:05:54.385Z,5.23
2018-12-24T01:06:54.372Z,5.22
2018-12-24T01:07:54.364Z,5.23
2018-12-24T01:08:54.357Z,5.22
2018-12-24T01:09:54.348Z,5.22
2018-12-24T01:10:54.347Z,5.23
2018-12-24T01:11:54.319Z,5.30
2018-12-24T01:12:54.315Z,5.16
2018-12-24T01:13:54.332Z,5.25
2018-12-24T01:14:54.286Z,5.28
2018-12-24T01:15:54.289Z,5.22
2018-12-24T01:16:54.266Z,5.16
2018-12-24T01:17:54.253Z,5.20
2018-12-24T01:18:54.242Z,5.30
2018-12-24T01:19:54.246Z,5.30
2018-12-24T01:20:54.217Z,5.31
2018-12-24T01:21:54.216Z,5.23
2018-12-24T01:22:54.195Z,5.14
2018-12-24T01:23:54.185Z,5.25
2018-12-24T01:24:54.203Z,5.16
2018-12-24T01:25:54.168Z,5.19
2018-12-24T01:26:54.151Z,5.20
2018-12-24T01:27:54.146Z,5.17
2018-12-24T01:28:54.127Z,5.25
2018-12-24T01:29:54.135Z,5.19
2018-12-24T01:30:54.128Z,5.22
2018-12-24T01:31:54.094Z,5.30
2018-12-24T01:32:54.084Z,5.20
2018-12-24T01:33:54.082Z,5.23
2018-12-24T01:34:54.075Z,5.27
2018-12-24T01:35:54.093Z,5.32
2018-12-24T01:36:54.043Z,5.32
2018-12-24T01:37:54.028Z,5.35
2018-12-24T01:38:54.022Z,5.31
2018-12-24T01:39:54.018Z,5.30
2018-12-24T01:40:53.998Z,5.25
2018-12-24T01:41:54.024Z,5.32
2018-12-24T01:42:53.979Z,5.32
2018-12-24T01:43:53.963Z,5.30
2018-12-24T01:44:54.017Z,5.27
2018-12-24T01:45:53.947Z,5.31
2018-12-24T01:46:53.928Z,5.27
2018-12-24T01:47:53.942Z,5.31
2018-12-24T01:48:53.903Z,5.28
2018-12-24T01:49:53.892Z,5.22
2018-12-24T01:50:53.885Z,5.30
2018-12-24T01:51:53.883Z,5.27
2018-12-24T01:52:53.862Z,5.27
2018-12-24T01:53:53.874Z,5.30
2018-12-24T01:54:53.837Z,5.27
2018-12-24T01:55:53.830Z,5.34
2018-12-24T01:56:53.814Z,5.30
2018-12-24T01:57:53.815Z,5.34
2018-12-24T01:58:53.793Z,5.31
2018-12-24T01:59:53.819Z,5.32
2018-12-24T02:00:53.771Z,5.27
2018-12-24T02:01:53.762Z,5.30
2018-12-24T02:02:53.748Z,5.31
2018-12-24T02:03:53.741Z,5.27
2018-12-24T02:04:53.725Z,5.31
2018-12-24T02:05:53.760Z,5.30
2018-12-24T02:06:53.703Z,5.22
2018-12-24T02:07:53.693Z,5.22
2018-12-24T02:08:53.681Z,5.35
2018-12-24T02:09:53.676Z,5.25
2018-12-24T02:10:53.659Z,5.25
2018-12-24T02:11:53.690Z,5.19
2018-12-24T02:12:53.640Z,5.19
2018-12-24T02:13:53.628Z,5.30
2018-12-24T02:14:53.615Z,5.23
2018-12-24T02:15:53.615Z,5.20
2018-12-24T02:16:53.591Z,5.20
2018-12-24T02:17:53.595Z,5.17
2018-12-24T02:18:53.569Z,5.23
2018-12-24T02:19:53.559Z,5.19
2018-12-24T02:20:53.546Z,5.25
2018-12-24T02:21:53.545Z,5.22
2018-12-24T02:22:53.556Z,5.17
2018-12-24T02:23:53.514Z,5.23
2018-12-24T02:24:53.500Z,5.19
2018-12-24T02:25:53.489Z,5.22
2018-12-24T02:26:53.511Z,5.22
2018-12-24T02:27:53.479Z,5.25
2018-12-24T02:28:53.589Z,5.25
2018-12-24T02:29:53.449Z,5.25
2018-12-24T02:30:53.435Z,5.25
2018-12-24T02:31:53.428Z,5.14
2018-12-24T02:32:53.418Z,5.13
2018-12-24T02:33:53.412Z,5.12
2018-12-24T02:34:53.440Z,5.16
2018-12-24T02:35:53.379Z,5.10
2018-12-24T02:36:53.374Z,5.13
2018-12-24T02:37:53.355Z,5.14
2018-12-24T02:38:53.347Z,5.12
2018-12-24T02:39:53.349Z,5.16
2018-12-24T02:40:53.361Z,5.13
2018-12-24T02:41:53.315Z,5.16
2018-12-24T02:42:53.303Z,5.10
2018-12-24T02:43:53.290Z,5.12
2018-12-24T02:44:53.277Z,5.09
2018-12-24T02:45:53.277Z,5.13
2018-12-24T02:46:53.296Z,5.19
2018-12-24T02:47:53.248Z,5.13
2018-12-24T02:48:53.234Z,5.09
2018-12-24T02:49:53.225Z,5.13
2018-12-24T02:50:53.217Z,5.09
2018-12-24T02:51:53.211Z,5.09
2018-12-24T02:52:53.220Z,5.09
2018-12-24T02:53:53.175Z,5.07
2018-12-24T02:54:53.166Z,5.13
2018-12-24T02:55:53.154Z,5.16
2018-12-24T02:56:53.142Z,5.10
2018-12-24T02:57:53.141Z,5.07
2018-12-24T02:58:53.152Z,5.16
2018-12-24T02:59:53.108Z,5.14
2018-12-24T03:00:53.100Z,5.09
2018-12-24T03:01:53.090Z,5.09
2018-12-24T03:02:53.075Z,5.09
2018-12-24T03:03:53.071Z,5.12
2018-12-24T03:04:53.093Z,5.12
2018-12-24T03:05:53.043Z,5.12
2018-12-24T03:06:53.103Z,5.07
2018-12-24T03:07:53.021Z,5.12
2018-12-24T03:08:53.010Z,5.14
2018-12-24T03:09:53.007Z,5.09
2018-12-24T03:10:53.013Z,5.13
2018-12-24T03:11:52.980Z,5.09
2018-12-24T03:13:02.295Z,5.09
2018-12-24T03:13:53.953Z,5.13
2018-12-24T03:14:52.946Z,5.13
2018-12-24T03:15:52.938Z,5.05
2018-12-24T03:16:52.959Z,5.09
2018-12-24T03:17:52.917Z,5.07
2018-12-24T03:18:52.897Z,5.10
2018-12-24T03:19:52.887Z,5.04
2018-12-24T03:20:52.875Z,5.10
2018-12-24T03:21:52.865Z,4.89
2018-12-24T03:22:52.903Z,4.98
2018-12-24T03:23:52.843Z,4.86
2018-12-24T03:24:52.833Z,4.76
2018-12-24T03:25:52.821Z,4.73
2018-12-24T03:26:52.805Z,4.64
2018-12-24T03:27:52.799Z,4.65
2018-12-24T03:28:52.814Z,4.59
2018-12-24T03:29:52.775Z,4.58
2018-12-24T03:30:52.763Z,4.54
2018-12-24T03:31:52.773Z,4.50
2018-12-24T03:32:52.757Z,4.54
2018-12-24T03:33:52.729Z,4.55
2018-12-24T03:34:52.727Z,4.43
2018-12-24T03:35:52.709Z,4.42
2018-12-24T03:36:52.740Z,4.39
2018-12-24T03:37:52.683Z,4.40
2018-12-24T03:38:52.672Z,4.34
2018-12-24T03:39:52.662Z,4.29
2018-12-24T03:40:52.657Z,4.24
2018-12-24T03:41:52.640Z,4.25
2018-12-24T03:42:52.674Z,4.22
2018-12-24T03:43:52.623Z,4.19
2018-12-24T03:44:52.602Z,4.19
2018-12-24T03:45:52.592Z,4.12
2018-12-24T03:46:52.592Z,4.19
2018-12-24T03:47:52.571Z,4.07
2018-12-24T03:48:52.604Z,4.01
2018-12-24T03:49:52.552Z,4.01
2018-12-24T03:50:52.537Z,4.08
2018-12-24T03:51:52.526Z,3.96
2018-12-24T03:52:52.528Z,3.98
2018-12-24T03:53:52.503Z,3.98
2018-12-24T03:54:52.510Z,3.98
2018-12-24T03:55:52.481Z,3.97
2018-12-24T03:56:52.473Z,4.00
2018-12-24T03:57:52.459Z,3.88
2018-12-24T03:58:52.454Z,3.89
2018-12-24T03:59:52.453Z,3.88
2018-12-24T04:00:52.428Z,3.85
2018-12-24T04:01:52.414Z,3.88
2018-12-24T04:02:52.403Z,3.85
2018-12-24T04:03:52.393Z,3.88
2018-12-24T04:04:52.423Z,3.89
2018-12-24T04:05:52.371Z,3.86
2018-12-24T04:06:52.365Z,3.92
2018-12-24T04:07:52.348Z,3.86
2018-12-24T04:08:52.338Z,3.86
2018-12-24T04:09:52.332Z,3.86
2018-12-24T04:10:52.358Z,3.96
2018-12-24T04:11:52.303Z,3.82
2018-12-24T04:12:52.296Z,3.85
2018-12-24T04:13:52.284Z,3.94
2018-12-24T04:14:52.266Z,3.83
2018-12-24T04:15:52.262Z,3.88
2018-12-24T04:16:52.285Z,3.96
2018-12-24T04:17:52.237Z,3.85
2018-12-24T04:18:52.223Z,3.88
2018-12-24T04:19:52.214Z,3.82
2018-12-24T04:20:52.203Z,3.97
2018-12-24T04:21:52.229Z,3.89
2018-12-24T04:22:52.192Z,3.88
2018-12-24T04:23:52.169Z,3.86
2018-12-24T04:24:52.161Z,3.88
2018-12-24T04:25:52.146Z,3.86
2018-12-24T04:26:52.136Z,3.96
2018-12-24T04:27:52.163Z,3.82
2018-12-24T04:28:52.122Z,3.88
2018-12-24T04:29:52.101Z,3.94
2018-12-24T04:30:52.087Z,3.88
2018-12-24T04:31:52.078Z,3.90
2018-12-24T04:32:52.067Z,3.97
2018-12-24T04:33:52.077Z,3.96
2018-12-24T04:34:52.051Z,3.88
2018-12-24T04:35:52.051Z,3.80
2018-12-24T04:36:52.020Z,3.90
2018-12-24T04:37:52.011Z,3.83
2018-12-24T04:38:52.031Z,3.82
2018-12-24T04:39:51.988Z,3.79
2018-12-24T04:40:51.986Z,3.89
2018-12-24T04:41:51.965Z,3.90
2018-12-24T04:42:51.955Z,3.78
2018-12-24T04:43:51.943Z,3.78
2018-12-24T04:44:51.973Z,3.72
2018-12-24T04:45:51.922Z,3.82
2018-12-24T04:46:51.912Z,3.76
2018-12-24T04:47:51.898Z,3.75
2018-12-24T04:48:51.888Z,3.79
2018-12-24T04:49:51.876Z,3.82
2018-12-24T04:50:51.880Z,3.76
2018-12-24T04:51:51.855Z,3.75
2018-12-24T04:52:51.851Z,3.67
2018-12-24T04:53:51.866Z,3.70
2018-12-24T04:54:51.820Z,3.70
2018-12-24T04:55:51.810Z,3.64
2018-12-24T04:56:51.799Z,3.67
2018-12-24T04:57:51.788Z,3.67
2018-12-24T04:58:51.783Z,3.68
2018-12-24T04:59:51.784Z,3.64
2018-12-24T05:00:51.777Z,3.67
2018-12-24T05:01:51.743Z,3.62
2018-12-24T05:02:51.732Z,3.68
2018-12-24T05:03:51.726Z,3.50
2018-12-24T05:04:51.717Z,3.49
2018-12-24T05:05:51.705Z,3.52
2018-12-24T05:06:51.788Z,3.54
2018-12-24T05:07:51.677Z,3.52
2018-12-24T05:08:51.666Z,3.57
2018-12-24T05:09:51.655Z,3.50
2018-12-24T05:10:51.651Z,3.57
2018-12-24T05:11:51.634Z,3.49
2018-12-24T05:12:51.653Z,3.52
2018-12-24T05:13:51.617Z,3.50
2018-12-24T05:14:51.604Z,3.49
2018-12-24T05:15:51.588Z,3.54
2018-12-24T05:16:51.584Z,3.49
2018-12-24T05:17:51.570Z,3.44
2018-12-24T05:18:51.575Z,3.46
2018-12-24T05:19:51.544Z,3.47
2018-12-24T05:20:51.562Z,3.46
2018-12-24T05:21:51.525Z,3.44
2018-12-24T05:22:51.519Z,3.46
2018-12-24T05:23:51.498Z,3.58
2018-12-24T05:24:51.489Z,3.52
2018-12-24T05:25:51.478Z,3.57
2018-12-24T05:26:51.486Z,3.52
2018-12-24T05:27:51.458Z,3.53
2018-12-24T05:28:51.490Z,3.53
2018-12-24T05:29:51.435Z,3.53
2018-12-24T05:30:51.422Z,3.61
2018-12-24T05:31:51.412Z,3.50
2018-12-24T05:32:51.408Z,3.52
2018-12-24T05:33:51.389Z,3.53
2018-12-24T05:34:51.407Z,3.50
2018-12-24T05:35:51.366Z,3.52
2018-12-24T05:36:51.356Z,3.54
2018-12-24T05:37:51.344Z,3.52
2018-12-24T05:38:51.335Z,3.50
2018-12-24T05:39:51.325Z,3.52
2018-12-24T05:40:51.355Z,3.53
2018-12-24T05:41:51.303Z,3.53
2018-12-24T05:42:51.290Z,3.52
2018-12-24T05:43:51.279Z,3.49
2018-12-24T05:44:51.265Z,3.58
2018-12-24T05:45:51.257Z,3.50
2018-12-24T05:46:51.282Z,3.58
2018-12-24T05:47:51.237Z,3.49
2018-12-24T05:48:51.223Z,3.53
2018-12-24T05:49:51.211Z,3.52
2018-12-24T05:50:51.200Z,3.36
2018-12-24T05:51:51.190Z,3.39
2018-12-24T05:52:51.225Z,3.39
2018-12-24T05:53:51.169Z,3.42
2018-12-24T05:54:51.157Z,3.40
2018-12-24T05:55:51.145Z,3.44
2018-12-24T05:56:51.134Z,3.44
2018-12-24T05:57:51.125Z,3.42
2018-12-24T05:58:51.211Z,3.46
2018-12-24T05:59:51.102Z,3.43
2018-12-24T06:00:51.091Z,3.40
2018-12-24T06:01:51.081Z,3.44
2018-12-24T06:02:51.068Z,3.50
2018-12-24T06:03:51.059Z,3.47
2018-12-24T06:04:51.067Z,3.47
2018-12-24T06:05:51.036Z,3.57
2018-12-24T06:06:51.025Z,3.53
2018-12-24T06:07:51.013Z,3.50
2018-12-24T06:08:51.003Z,3.60
2018-12-24T06:09:51.024Z,3.58
2018-12-24T06:10:50.985Z,3.57
2018-12-24T06:11:50.970Z,3.53
2018-12-24T06:12:50.960Z,3.54
2018-12-24T06:13:57.895Z,3.60
2018-12-24T06:14:51.948Z,3.62
2018-12-24T06:15:50.947Z,3.57
2018-12-24T06:16:50.916Z,3.61
2018-12-24T06:17:50.903Z,3.64
2018-12-24T06:18:50.893Z,3.60
2018-12-24T06:19:50.880Z,3.68
2018-12-24T06:20:50.871Z,3.53
2018-12-24T06:21:50.874Z,3.65
2018-12-24T06:22:50.879Z,3.61
2018-12-24T06:23:50.836Z,3.61
2018-12-24T06:24:50.827Z,3.67
2018-12-24T06:25:50.814Z,3.64
2018-12-24T06:26:50.804Z,3.67
2018-12-24T06:27:50.791Z,3.67
2018-12-24T06:28:50.822Z,3.57
2018-12-24T06:29:50.858Z,3.53
2018-12-24T06:30:50.765Z,3.49
2018-12-24T06:31:50.750Z,3.57
2018-12-24T06:32:50.737Z,3.61
2018-12-24T06:33:50.727Z,3.54
2018-12-24T06:34:50.742Z,3.58
2018-12-24T06:35:50.702Z,3.52
2018-12-24T06:36:50.692Z,3.44
2018-12-24T06:37:50.679Z,3.34
2018-12-24T06:38:50.669Z,3.46
2018-12-24T06:39:50.660Z,3.40
2018-12-24T06:40:50.693Z,3.42
2018-12-24T06:41:50.636Z,3.36
2018-12-24T06:42:50.625Z,3.25
2018-12-24T06:43:50.615Z,3.40
2018-12-24T06:44:50.603Z,3.15
2018-12-24T06:45:50.593Z,3.31
2018-12-24T06:46:50.621Z,3.28
2018-12-24T06:47:50.571Z,3.27
2018-12-24T06:48:50.560Z,3.28
2018-12-24T06:49:50.550Z,3.27
2018-12-24T06:50:50.537Z,3.24
2018-12-24T06:51:50.526Z,3.12
2018-12-24T06:52:50.536Z,3.25
2018-12-24T06:53:50.502Z,3.23
2018-12-24T06:54:50.494Z,3.16
2018-12-24T06:55:50.481Z,3.24
2018-12-24T06:56:50.473Z,3.18
2018-12-24T06:57:50.498Z,3.12
2018-12-24T06:58:50.458Z,3.20
2018-12-24T06:59:50.439Z,3.13
2018-12-24T07:00:50.428Z,3.18
2018-12-24T07:01:50.415Z,3.21
2018-12-24T07:02:50.403Z,3.15
2018-12-24T07:03:50.431Z,3.16
2018-12-24T07:04:50.394Z,3.10
2018-12-24T07:05:50.373Z,3.16
2018-12-24T07:06:50.361Z,3.07
2018-12-24T07:07:50.348Z,3.09
2018-12-24T07:08:50.340Z,3.06
2018-12-24T07:09:50.339Z,3.09
2018-12-24T07:10:50.328Z,3.02
2018-12-24T07:11:50.305Z,2.98
2018-12-24T07:12:50.293Z,3.02
2018-12-24T07:13:50.283Z,3.05
2018-12-24T07:14:50.309Z,2.95
2018-12-24T07:15:50.260Z,2.94
2018-12-24T07:16:50.259Z,2.97
2018-12-24T07:17:50.240Z,2.89
2018-12-24T07:18:50.228Z,2.89
2018-12-24T07:19:50.216Z,2.89
2018-12-24T07:20:50.217Z,2.82
2018-12-24T07:21:50.195Z,2.74
2018-12-24T07:22:50.196Z,2.82
2018-12-24T07:23:50.175Z,2.73
2018-12-24T07:24:50.163Z,2.79
2018-12-24T07:25:50.191Z,2.76
2018-12-24T07:26:50.144Z,2.87
2018-12-24T07:27:50.128Z,2.84
2018-12-24T07:28:58.756Z,2.73
2018-12-24T07:29:51.106Z,2.84
2018-12-24T07:30:50.096Z,2.91
2018-12-24T07:31:50.102Z,2.77
2018-12-24T07:32:50.074Z,2.85
2018-12-24T07:33:50.067Z,2.85
2018-12-24T07:34:50.064Z,2.88
2018-12-24T07:35:50.039Z,2.81
2018-12-24T07:36:50.029Z,2.81
2018-12-24T07:37:50.051Z,2.82
2018-12-24T07:38:50.008Z,2.82
2018-12-24T07:39:49.996Z,2.76
2018-12-24T07:40:49.990Z,2.81
2018-12-24T07:41:49.975Z,2.71
2018-12-24T07:42:49.963Z,2.71
2018-12-24T07:43:49.963Z,2.64
2018-12-24T07:44:49.939Z,2.61
2018-12-24T07:45:49.951Z,2.66
2018-12-24T07:46:49.928Z,2.64
2018-12-24T07:47:49.907Z,2.66
2018-12-24T07:48:49.902Z,2.55
2018-12-24T07:49:49.886Z,2.58
2018-12-24T07:50:49.875Z,2.67
2018-12-24T07:51:49.897Z,2.61
2018-12-24T07:52:49.862Z,2.63
2018-12-24T07:53:49.842Z,2.61
2018-12-24T07:54:49.832Z,2.53
2018-12-24T07:55:49.816Z,2.55
2018-12-24T07:56:49.807Z,2.51
2018-12-24T07:57:49.825Z,2.53
2018-12-24T07:58:49.795Z,2.49
2018-12-24T07:59:49.775Z,2.51
2018-12-24T08:00:49.763Z,2.51
2018-12-24T08:01:49.753Z,2.45
2018-12-24T08:02:49.738Z,2.49
2018-12-24T08:03:49.751Z,2.38
2018-12-24T08:04:49.727Z,2.44
2018-12-24T08:05:49.705Z,2.41
2018-12-24T08:06:49.694Z,2.41
2018-12-24T08:07:49.683Z,2.34
2018-12-24T08:08:49.675Z,2.41
2018-12-24T08:09:49.684Z,2.34
2018-12-24T08:10:49.656Z,2.34
2018-12-24T08:11:49.640Z,2.33
2018-12-24T08:12:49.632Z,2.31
2018-12-24T08:13:49.618Z,2.28
2018-12-24T08:14:49.607Z,2.34
2018-12-24T08:15:49.607Z,2.31
2018-12-24T08:16:49.596Z,2.26
2018-12-24T08:17:49.574Z,2.26
2018-12-24T08:18:49.565Z,2.27
2018-12-24T08:19:49.551Z,2.19
2018-12-24T08:20:49.566Z,2.41
2018-12-24T08:21:49.531Z,2.27
2018-12-24T08:22:49.529Z,2.34
2018-12-24T08:23:49.505Z,2.34
2018-12-24T08:24:49.496Z,2.41
2018-12-24T08:25:49.484Z,2.31
2018-12-24T08:26:52.337Z,2.33
2018-12-24T08:27:49.464Z,2.48
2018-12-24T08:28:49.462Z,2.34
2018-12-24T08:29:49.442Z,2.46
2018-12-24T08:30:49.431Z,2.45
2018-12-24T08:31:49.417Z,2.48
2018-12-24T08:32:49.443Z,2.45
2018-12-24T08:33:49.396Z,2.48
2018-12-24T08:34:49.390Z,2.51
2018-12-24T08:35:49.373Z,2.58
2018-12-24T08:36:49.362Z,2.51
2018-12-24T08:37:49.352Z,2.53
2018-12-24T08:38:49.353Z,2.45
2018-12-24T08:39:49.328Z,2.48
2018-12-24T08:40:49.323Z,2.52
2018-12-24T08:41:49.307Z,2.41
2018-12-24T08:42:49.339Z,2.38
2018-12-24T08:43:49.285Z,2.44
2018-12-24T08:44:49.277Z,2.52
2018-12-24T08:45:49.261Z,2.51
2018-12-24T08:46:49.256Z,2.44
2018-12-24T08:47:49.239Z,2.45
2018-12-24T08:48:49.242Z,2.45
2018-12-24T08:49:49.236Z,2.45
2018-12-24T08:50:49.210Z,2.44
2018-12-24T08:51:49.196Z,2.49
2018-12-24T08:52:49.191Z,2.41
2018-12-24T08:53:49.192Z,2.41
2018-12-24T08:54:49.162Z,2.40
2018-12-24T08:55:49.151Z,2.35
2018-12-24T08:56:49.140Z,2.35
2018-12-24T08:57:49.128Z,2.40
2018-12-24T08:58:49.124Z,2.44
2018-12-24T08:59:49.121Z,2.37
2018-12-24T09:00:49.095Z,2.31
2018-12-24T09:01:49.086Z,2.38
2018-12-24T09:02:49.077Z,2.23
2018-12-24T09:03:49.066Z,2.23
2018-12-24T09:04:49.064Z,2.37
2018-12-24T09:05:49.054Z,2.30
2018-12-24T09:06:49.029Z,2.12
2018-12-24T09:07:49.017Z,2.19
2018-12-24T09:08:49.008Z,2.13
2018-12-24T09:09:48.998Z,2.10
2018-12-24T09:10:49.029Z,2.17
2018-12-24T09:11:48.974Z,2.04
2018-12-24T09:12:48.965Z,2.02
2018-12-24T09:13:48.955Z,2.08
2018-12-24T09:14:50.311Z,1.98
2018-12-24T09:15:48.931Z,1.97
2018-12-24T09:16:48.937Z,1.85
2018-12-24T09:17:48.908Z,1.87
2018-12-24T09:18:48.899Z,1.99
2018-12-24T09:19:48.886Z,1.87
2018-12-24T09:20:52.729Z,1.93
2018-12-24T09:21:48.901Z,1.91
2018-12-24T09:22:48.863Z,1.99
2018-12-24T09:23:48.842Z,1.91
2018-12-24T09:24:48.830Z,1.93
2018-12-24T09:25:48.821Z,1.99
2018-12-24T09:26:48.810Z,1.94
2018-12-24T09:27:48.813Z,2.04
2018-12-24T09:28:48.792Z,2.08
2018-12-24T09:29:48.777Z,1.99
2018-12-24T09:30:48.765Z,2.01
2018-12-24T09:31:48.754Z,2.04
2018-12-24T09:32:48.778Z,2.02
2018-12-24T09:33:48.731Z,1.98
2018-12-24T09:34:48.731Z,1.87
2018-12-24T09:35:48.709Z,1.87
2018-12-24T09:36:48.698Z,1.97
2018-12-24T09:37:48.688Z,1.82
2018-12-24T09:38:48.688Z,1.82
2018-12-24T09:39:48.665Z,1.83
2018-12-24T09:40:48.662Z,1.78
2018-12-24T09:41:48.748Z,1.82
2018-12-24T09:42:48.680Z,1.78
2018-12-24T09:43:48.621Z,1.78
2018-12-24T09:44:48.611Z,1.71
2018-12-24T09:45:48.598Z,1.73
2018-12-24T09:46:48.607Z,1.62
2018-12-24T09:47:48.578Z,1.65
2018-12-24T09:48:48.590Z,1.69
2018-12-24T09:49:48.555Z,1.78
2018-12-24T09:50:48.544Z,1.62
2018-12-24T09:51:48.534Z,1.64
2018-12-24T09:52:48.529Z,1.71
2018-12-24T09:53:48.510Z,1.69
2018-12-24T09:54:48.608Z,1.68
2018-12-24T09:55:48.490Z,1.54
2018-12-24T09:56:48.482Z,1.60
2018-12-24T09:57:48.466Z,1.58
2018-12-24T09:58:48.456Z,1.47
2018-12-24T09:59:48.453Z,1.46
2018-12-24T10:00:48.447Z,1.40
2018-12-24T10:01:48.420Z,1.39
2018-12-24T10:02:48.428Z,1.36
2018-12-24T10:03:48.399Z,1.37
2018-12-24T10:04:48.387Z,1.26
2018-12-24T10:05:48.507Z,1.39
2018-12-24T10:06:48.365Z,1.32
2018-12-24T10:07:48.365Z,1.36
2018-12-24T10:08:48.349Z,1.25
2018-12-24T10:09:48.336Z,1.32
2018-12-24T10:10:48.327Z,1.33
2018-12-24T10:11:48.327Z,1.34
2018-12-24T10:12:48.365Z,1.34
2018-12-24T10:13:48.312Z,1.36
2018-12-24T10:14:48.281Z,1.43
2018-12-24T10:15:48.268Z,1.46
2018-12-24T10:16:48.307Z,1.50
2018-12-24T10:17:48.245Z,1.47
2018-12-24T10:18:48.244Z,1.51
2018-12-24T10:19:48.240Z,1.51
2018-12-24T10:20:48.253Z,1.54
2018-12-24T10:21:48.203Z,1.61
2018-12-24T10:22:48.214Z,1.62
2018-12-24T10:23:48.185Z,1.64
2018-12-24T10:24:48.169Z,1.62
2018-12-24T10:25:48.159Z,1.60
2018-12-24T10:26:48.146Z,1.68
2018-12-24T10:27:48.135Z,1.71
2018-12-24T10:28:48.135Z,1.71
2018-12-24T10:29:48.111Z,1.68
2018-12-24T10:30:48.122Z,1.87
2018-12-24T10:31:48.091Z,1.78
2018-12-24T10:32:48.079Z,1.75
2018-12-24T10:33:48.080Z,1.78
2018-12-24T10:34:48.072Z,1.87
2018-12-24T10:35:48.046Z,1.94
2018-12-24T10:36:48.037Z,1.93
2018-12-24T10:37:48.041Z,2.12
2018-12-24T10:38:48.032Z,2.08
2018-12-24T10:39:48.033Z,2.12
2018-12-24T10:40:47.993Z,2.12
2018-12-24T10:41:47.988Z,2.09
2018-12-24T10:42:47.973Z,2.10
2018-12-24T10:43:47.959Z,2.12
2018-12-24T10:44:47.949Z,2.22
2018-12-24T10:45:47.991Z,2.31
2018-12-24T10:46:47.922Z,2.13
2018-12-24T10:47:47.924Z,2.16
2018-12-24T10:48:47.901Z,2.28
2018-12-24T10:49:47.893Z,2.13
2018-12-24T10:50:47.878Z,2.27
2018-12-24T10:51:47.878Z,2.38
2018-12-24T10:52:47.855Z,2.27
2018-12-24T10:53:47.865Z,2.37
2018-12-24T10:54:47.832Z,2.38
2018-12-24T10:55:47.825Z,2.45
2018-12-24T10:56:47.836Z,2.44
2018-12-24T10:57:47.803Z,2.46
2018-12-24T10:58:47.790Z,2.48
2018-12-24T10:59:47.792Z,2.53
2018-12-24T11:00:47.764Z,2.53
2018-12-24T11:01:47.755Z,2.56
2018-12-24T11:02:47.762Z,2.58
2018-12-24T11:03:47.735Z,2.58
2018-12-24T11:04:47.786Z,2.61
2018-12-24T11:05:47.720Z,2.70
2018-12-24T11:06:47.701Z,2.61
2018-12-24T11:07:47.702Z,2.59
2018-12-24T11:08:47.679Z,2.67
2018-12-24T11:09:47.698Z,2.63
2018-12-24T11:10:47.656Z,2.69
2018-12-24T11:11:47.652Z,2.55
2018-12-24T11:12:47.648Z,2.63
2018-12-24T11:13:47.624Z,2.61
2018-12-24T11:14:47.611Z,2.66
2018-12-24T11:15:47.621Z,2.55
2018-12-24T11:16:47.593Z,2.59
2018-12-24T11:17:47.584Z,2.51
2018-12-24T11:18:47.573Z,2.40
2018-12-24T11:19:47.557Z,2.40
2018-12-24T11:20:47.548Z,2.51
2018-12-24T11:21:47.569Z,2.45
2018-12-24T11:22:47.523Z,2.51
2018-12-24T11:23:47.522Z,2.49
2018-12-24T11:24:47.506Z,2.53
2018-12-24T11:25:47.493Z,2.53
2018-12-24T11:26:47.481Z,2.59
2018-12-24T11:27:47.481Z,2.63
2018-12-24T11:28:47.456Z,2.64
2018-12-24T11:29:47.453Z,2.67
2018-12-24T11:30:47.448Z,2.63
2018-12-24T11:31:47.425Z,2.66
2018-12-24T11:32:47.412Z,2.66
2018-12-24T11:33:47.401Z,2.66
2018-12-24T11:34:47.391Z,2.66
2018-12-24T11:35:47.415Z,2.71
2018-12-24T11:36:47.373Z,2.70
2018-12-24T11:37:47.356Z,2.71
2018-12-24T11:38:47.346Z,2.79
2018-12-24T11:39:47.339Z,2.82
2018-12-24T11:40:47.325Z,2.81
2018-12-24T11:41:47.341Z,2.77
2018-12-24T11:42:47.303Z,2.84
2018-12-24T11:43:47.292Z,2.85
2018-12-24T11:44:47.281Z,2.91
2018-12-24T11:45:47.268Z,2.95
2018-12-24T11:46:47.279Z,3.00
2018-12-24T11:47:47.257Z,3.03
2018-12-24T11:48:47.240Z,3.03
2018-12-24T11:49:47.226Z,3.02
2018-12-24T11:50:47.212Z,3.05
2018-12-24T11:51:47.202Z,3.00
2018-12-24T11:52:47.229Z,3.03
2018-12-24T11:53:47.191Z,3.12
2018-12-24T11:54:47.167Z,3.03
2018-12-24T11:55:47.163Z,3.09
2018-12-24T11:56:47.147Z,2.98
2018-12-24T11:57:47.466Z,2.97
2018-12-24T11:58:47.145Z,3.07
2018-12-24T11:59:47.125Z,3.10
2018-12-24T12:00:47.103Z,3.10
2018-12-24T12:01:47.091Z,3.05
2018-12-24T12:02:47.080Z,3.12
2018-12-24T12:03:47.106Z,3.25
2018-12-24T12:04:47.059Z,3.24
2018-12-24T12:05:47.053Z,3.25
2018-12-24T12:06:47.039Z,3.21
2018-12-24T12:07:47.026Z,3.27
2018-12-24T12:08:47.015Z,3.24
2018-12-24T12:09:47.016Z,3.20
2018-12-24T12:10:46.991Z,3.12
2018-12-24T12:11:46.990Z,3.05
2018-12-24T12:12:46.971Z,2.97
2018-12-24T12:13:46.959Z,2.89
2018-12-24T12:14:46.991Z,2.88
2018-12-24T12:15:46.936Z,2.91
2018-12-24T12:16:46.925Z,2.98
2018-12-24T12:17:46.924Z,3.03
2018-12-24T12:18:46.905Z,2.97
2018-12-24T12:19:46.891Z,3.03
2018-12-24T12:20:52.557Z,2.89
2018-12-24T12:21:47.867Z,2.94
2018-12-24T12:22:46.857Z,2.94
2018-12-24T12:23:46.859Z,2.85
2018-12-24T12:24:46.836Z,2.84
2018-12-24T12:25:46.827Z,2.73
2018-12-24T12:26:46.857Z,2.81
2018-12-24T12:27:46.804Z,2.79
2018-12-24T12:28:46.792Z,2.82
2018-12-24T12:29:46.791Z,2.88
2018-12-24T12:30:46.772Z,2.87
2018-12-24T12:31:46.762Z,2.85
2018-12-24T12:32:46.787Z,2.84
2018-12-24T12:33:46.737Z,2.92
2018-12-24T12:34:46.728Z,2.98
2018-12-24T12:35:46.726Z,2.91
2018-12-24T12:36:46.703Z,2.88
2018-12-24T12:37:46.692Z,2.87
2018-12-24T12:38:46.696Z,2.91
2018-12-24T12:39:46.672Z,2.98
2018-12-24T12:40:46.659Z,2.98
2018-12-24T12:41:46.656Z,3.02
2018-12-24T12:42:46.638Z,3.12
2018-12-24T12:43:46.657Z,3.02
2018-12-24T12:44:46.618Z,2.97
2018-12-24T12:45:51.163Z,2.95
2018-12-24T12:46:46.594Z,2.95
2018-12-24T12:47:46.592Z,2.95
2018-12-24T12:48:46.571Z,2.95
2018-12-24T12:49:46.573Z,2.85
2018-12-24T12:50:46.548Z,2.87
2018-12-24T12:51:46.535Z,2.84
2018-12-24T12:52:46.526Z,2.89
2018-12-24T12:53:46.524Z,2.88
2018-12-24T12:54:46.535Z,2.88
2018-12-24T12:55:46.494Z,2.94
2018-12-24T12:56:46.483Z,2.94
2018-12-24T12:57:46.472Z,2.97
2018-12-24T12:58:46.460Z,2.92
2018-12-24T12:59:46.454Z,3.00
2018-12-24T13:00:46.454Z,2.98
2018-12-24T13:01:46.440Z,3.12
2018-12-24T13:02:46.416Z,3.03
2018-12-24T13:03:46.403Z,3.06
2018-12-24T13:04:46.395Z,2.92
2018-12-24T13:05:46.400Z,2.91
2018-12-24T13:06:46.393Z,2.91
2018-12-24T13:07:46.359Z,2.87
2018-12-24T13:08:46.350Z,2.92
2018-12-24T13:09:46.339Z,2.95
2018-12-24T13:10:46.326Z,2.94
2018-12-24T13:11:46.321Z,3.10
2018-12-24T13:12:46.317Z,2.92
2018-12-24T13:13:46.293Z,2.98
2018-12-24T13:14:46.283Z,2.94
2018-12-24T13:15:46.275Z,2.87
2018-12-24T13:16:46.261Z,2.77
2018-12-24T13:17:46.298Z,2.81
2018-12-24T13:18:46.238Z,2.82